Time;durP1;ratioP1;P1;durP2;ratioP2;P2;SDS_P1;SDS_P2;PMS_P1;PMS_P2;Temp;Humidity;BMP_temperature;BMP_pressure;BME280_temperature;BME280_humidity;BME280_pressure;Samples;Min_cycle;Max_cycle;Signal;HPM_P1;HPM_P2
2022/12/17 13:06:41;;;;;;;;;;;20.10;52.20;;;;;;4459691;32;19986;-73
2022/12/17 13:09:22;;;;;;;;;;;20.10;52.30;;;;;;4460875;32;20116;-73
2022/12/17 13:11:49;;;;;;;;;;;20.20;52.30;;;;;;4458202;32;19986;-73
2022/12/17 13:14:23;;;;;;;;;;;20.20;52.40;;;;;;4460293;32;19982;-74
2022/12/17 13:16:58;;;;;;;;;;;20.20;52.40;;;;;;4434411;32;20168;-75
2022/12/17 13:19:30;;;;;;;;;;;20.20;52.40;;;;;;4451033;32;20027;-76
2022/12/17 13:22:16;;;;;;;;;;;20.20;53.50;;;;;;4452331;32;20285;-74
2022/12/17 13:24:43;;;;;;;;;;;20.20;52.60;;;;;;4441281;32;20135;-73
2022/12/17 13:27:44;;;;;;;;;;;20.20;52.60;;;;;;4459666;32;19989;-74
2022/12/17 13:30:20;;;;;;;;;;;20.30;52.70;;;;;;4412004;32;20401;-73
2022/12/17 13:32:57;;;;;;;;;;;20.30;52.70;;;;;;4452549;32;19982;-73
2022/12/17 13:35:46;;;;;;;;;;;20.30;52.70;;;;;;4459435;32;20017;-74
2022/12/17 13:38:12;;;;;;;;;;;20.30;52.70;;;;;;4423181;32;20057;-75
2022/12/17 13:41:02;;;;;;;;;;;20.40;52.80;;;;;;4458446;32;20041;-73
2022/12/17 13:43:32;;;;;;;;;;;20.40;52.80;;;;;;4451367;32;20490;-75
2022/12/17 13:45:58;;;;;;;;;;;20.40;52.80;;;;;;4459528;32;19982;-74
2022/12/17 13:48:36;;;;;;;;;;;20.40;52.80;;;;;;4457146;32;19988;-74
2022/12/17 13:51:04;;;;;;;;;;;20.40;52.90;;;;;;4456446;32;20107;-77
2022/12/17 13:53:33;;;;;;;;;;;20.40;52.90;;;;;;4457969;32;19986;-77
2022/12/17 13:55:59;;;;;;;;;;;20.40;52.90;;;;;;4459198;32;20025;-76
2022/12/17 13:58:29;;;;;;;;;;;20.40;52.90;;;;;;4458567;32;19974;-74
2022/12/17 14:01:05;;;;;;;;;;;20.40;52.90;;;;;;4458018;32;20063;-75
2022/12/17 14:03:52;;;;;;;;;;;20.40;52.90;;;;;;4457369;32;19982;-77
2022/12/17 14:06:18;;;;;;;;;;;20.40;52.90;;;;;;4456302;32;20539;-74
2022/12/17 14:08:45;;;;;;;;;;;20.40;53.00;;;;;;4456135;32;19974;-74
2022/12/17 14:13:55;;;;;;;;;;;20.40;53.00;;;;;;4446642;32;35631;-74
2022/12/17 14:16:21;;;;;;;;;;;20.40;53.00;;;;;;4457153;32;19966;-79
2022/12/17 14:18:54;;;;;;;;;;;20.50;53.10;;;;;;4459202;32;20008;-78
2022/12/17 14:21:20;;;;;;;;;;;20.50;53.00;;;;;;4459586;32;19988;-73
2022/12/17 14:23:46;;;;;;;;;;;20.50;53.00;;;;;;4458958;32;20002;-75
2022/12/17 14:26:12;;;;;;;;;;;20.50;53.00;;;;;;4458502;32;19974;-73
2022/12/17 14:28:48;;;;;;;;;;;20.50;53.00;;;;;;4459228;32;20383;-75
2022/12/17 14:31:19;;;;;;;;;;;20.50;53.00;;;;;;4460282;32;20030;-73
2022/12/17 14:33:45;;;;;;;;;;;20.50;53.00;;;;;;4459622;32;19990;-73
2022/12/17 14:36:14;;;;;;;;;;;20.50;53.10;;;;;;4456359;32;19982;-73
2022/12/17 14:38:54;;;;;;;;;;;20.50;53.00;;;;;;4458348;32;19982;-74
2022/12/17 14:44:04;;;;;;;;;;;20.50;52.90;;;;;;4457454;32;20427;-73
2022/12/17 14:46:31;;;;;;;;;;;20.60;53.00;;;;;;4458257;32;19978;-73
2022/12/17 14:49:01;;;;;;;;;;;20.60;53.00;;;;;;4457877;32;19986;-73
2022/12/17 14:51:30;;;;;;;;;;;20.60;53.00;;;;;;4457586;32;20292;-73
2022/12/17 14:54:05;;;;;;;;;;;20.60;53.00;;;;;;4458625;32;20025;-73
2022/12/17 14:56:39;;;;;;;;;;;20.60;53.00;;;;;;4458836;32;19978;-72
2022/12/17 14:59:29;;;;;;;;;;;20.60;53.00;;;;;;4458957;32;19974;-74
2022/12/17 15:01:56;;;;;;;;;;;20.60;53.00;;;;;;4459420;32;20064;-76
2022/12/17 15:04:24;;;;;;;;;;;20.60;53.10;;;;;;4458705;32;20026;-76
2022/12/17 15:07:13;;;;;;;;;;;20.60;53.20;;;;;;4446567;32;20101;-76
2022/12/17 15:09:45;;;;;;;;;;;20.60;53.20;;;;;;4457634;32;19986;-74
2022/12/17 15:12:26;;;;;;;;;;;20.60;53.20;;;;;;4446218;32;20533;-74
2022/12/17 15:14:52;;;;;;;;;;;20.60;53.20;;;;;;4458888;32;19975;-74
2022/12/17 15:17:18;;;;;;;;;;;20.60;53.20;;;;;;4459112;32;20120;-75
2022/12/17 15:20:02;;;;;;;;;;;20.60;53.20;;;;;;4458666;32;19994;-74
2022/12/17 15:22:34;;;;;;;;;;;20.60;53.20;;;;;;4459627;32;20319;-73
2022/12/17 15:25:00;;;;;;;;;;;20.60;53.20;;;;;;4458958;32;20061;-78
2022/12/17 15:27:27;;;;;;;;;;;20.60;53.20;;;;;;4458154;32;19982;-75
2022/12/17 15:29:53;;;;;;;;;;;20.60;53.20;;;;;;4458135;32;20385;-75
2022/12/17 15:32:22;;;;;;;;;;;20.60;53.20;;;;;;4457388;32;19994;-74
2022/12/17 15:34:48;;;;;;;;;;;20.60;53.20;;;;;;4459034;32;20004;-77
2022/12/17 15:37:24;;;;;;;;;;;20.60;53.10;;;;;;4457545;32;20180;-74
2022/12/17 15:39:50;;;;;;;;;;;20.60;53.20;;;;;;4460525;32;19962;-75
2022/12/17 15:45:00;;;;;;;;;;;20.60;53.20;;;;;;4457606;32;19978;-74
2022/12/17 15:47:25;;;;;;;;;;;20.70;53.20;;;;;;4458498;32;20526;-75
2022/12/17 15:49:51;;;;;;;;;;;20.60;53.30;;;;;;4462124;32;19974;-75
2022/12/17 15:52:17;;;;;;;;;;;20.60;53.30;;;;;;4463662;32;19962;-76
2022/12/17 15:54:43;;;;;;;;;;;20.60;53.40;;;;;;4458069;32;19962;-77
2022/12/17 15:57:09;;;;;;;;;;;20.60;53.40;;;;;;4460645;32;20103;-76
2022/12/17 15:59:35;;;;;;;;;;;20.70;53.40;;;;;;4457723;32;19982;-78
2022/12/17 16:02:01;;;;;;;;;;;20.70;53.40;;;;;;4457327;32;19989;-76
2022/12/17 16:04:27;;;;;;;;;;;20.70;53.40;;;;;;4456687;32;19970;-77
2022/12/17 16:06:53;;;;;;;;;;;20.70;53.40;;;;;;4452804;32;20056;-77
2022/12/17 16:09:23;;;;;;;;;;;20.70;53.40;;;;;;4456932;32;20040;-77
2022/12/17 16:11:51;;;;;;;;;;;20.70;53.40;;;;;;4461344;32;19986;-77
2022/12/17 16:14:17;;;;;;;;;;;20.70;53.40;;;;;;4462089;32;20065;-76
2022/12/17 16:16:42;;;;;;;;;;;20.70;53.40;;;;;;4460164;32;19978;-75
2022/12/17 16:19:09;;;;;;;;;;;20.70;53.40;;;;;;4461129;32;19982;-74
2022/12/17 16:21:35;;;;;;;;;;;20.70;53.40;;;;;;4460850;32;19994;-76
2022/12/17 16:24:00;;;;;;;;;;;20.70;53.40;;;;;;4460292;32;19985;-75
2022/12/17 16:26:26;;;;;;;;;;;20.70;53.30;;;;;;4460143;32;19970;-74
2022/12/17 16:28:52;;;;;;;;;;;20.70;53.40;;;;;;4460772;32;20021;-76
2022/12/17 16:31:17;;;;;;;;;;;20.70;53.30;;;;;;4460817;32;20100;-75
2022/12/17 16:33:44;;;;;;;;;;;20.70;53.30;;;;;;4460579;32;19982;-77
2022/12/17 16:36:11;;;;;;;;;;;20.70;53.30;;;;;;4460194;32;19989;-77
2022/12/17 16:38:44;;;;;;;;;;;20.70;53.30;;;;;;4461695;32;20020;-75
2022/12/17 16:41:10;;;;;;;;;;;20.80;53.30;;;;;;4460677;32;20410;-74
2022/12/17 16:43:36;;;;;;;;;;;20.70;53.30;;;;;;4461289;32;20411;-74
2022/12/17 16:46:02;;;;;;;;;;;20.70;53.20;;;;;;4458748;32;19982;-76
2022/12/17 16:48:27;;;;;;;;;;;20.80;53.30;;;;;;4459024;32;19974;-78
2022/12/17 16:50:53;;;;;;;;;;;20.80;53.30;;;;;;4458181;32;19981;-75
2022/12/17 16:53:19;;;;;;;;;;;20.70;53.30;;;;;;4460862;32;20384;-75
2022/12/17 16:55:46;;;;;;;;;;;20.70;53.30;;;;;;4446973;32;19971;-74
2022/12/17 16:58:12;;;;;;;;;;;20.70;53.30;;;;;;4458143;32;20030;-74
2022/12/17 17:00:39;;;;;;;;;;;20.70;53.30;;;;;;4457959;32;20438;-75
2022/12/17 17:03:05;;;;;;;;;;;20.70;53.30;;;;;;4458497;32;20046;-77
2022/12/17 17:05:31;;;;;;;;;;;20.70;53.30;;;;;;4461248;32;20088;-78
2022/12/17 17:07:58;;;;;;;;;;;20.70;53.30;;;;;;4459646;32;19985;-77
2022/12/17 17:10:23;;;;;;;;;;;20.70;53.20;;;;;;4458331;32;20075;-77
2022/12/17 17:12:50;;;;;;;;;;;20.70;53.10;;;;;;4459490;32;19990;-77
2022/12/17 17:15:16;;;;;;;;;;;20.70;53.00;;;;;;4460002;32;19982;-76
2022/12/17 17:17:42;;;;;;;;;;;20.70;52.90;;;;;;4459350;32;20297;-78
2022/12/17 17:20:08;;;;;;;;;;;20.70;53.70;;;;;;4459779;32;19986;-77
2022/12/17 17:22:34;;;;;;;;;;;20.70;52.60;;;;;;4459001;32;20055;-75
2022/12/17 17:24:59;;;;;;;;;;;20.70;52.50;;;;;;4458638;32;19994;-76
2022/12/17 17:27:25;;;;;;;;;;;20.70;52.30;;;;;;4445076;32;19962;-77
2022/12/17 17:29:50;;;;;;;;;;;20.70;52.20;;;;;;4459553;32;19970;-78
2022/12/17 17:32:16;;;;;;;;;;;20.70;52.10;;;;;;4459255;32;19998;-76
2022/12/17 17:34:42;;;;;;;;;;;20.80;52.00;;;;;;4460387;32;19981;-78
2022/12/17 17:37:08;;;;;;;;;;;20.80;51.90;;;;;;4450374;32;20006;-77
2022/12/17 17:39:33;;;;;;;;;;;20.80;51.80;;;;;;4446664;32;20097;-76
2022/12/17 17:41:59;;;;;;;;;;;20.70;51.60;;;;;;4446786;32;19966;-77
2022/12/17 17:44:25;;;;;;;;;;;20.70;51.60;;;;;;4447206;32;20319;-76
2022/12/17 17:46:51;;;;;;;;;;;20.80;51.60;;;;;;4446109;32;20554;-77
2022/12/17 17:49:16;;;;;;;;;;;20.80;51.60;;;;;;4443402;32;20055;-77
2022/12/17 17:51:43;;;;;;;;;;;20.70;51.50;;;;;;4446624;32;19959;-76
2022/12/17 17:54:08;;;;;;;;;;;20.70;51.40;;;;;;4455047;32;20136;-76
2022/12/17 17:56:36;;;;;;;;;;;20.70;51.40;;;;;;4458161;32;20451;-75
2022/12/17 17:59:09;;;;;;;;;;;20.80;51.40;;;;;;4459067;32;20319;-75
2022/12/17 18:01:37;;;;;;;;;;;20.80;51.30;;;;;;4459697;32;20426;-75
2022/12/17 18:04:03;;;;;;;;;;;20.70;51.20;;;;;;4459463;32;19986;-75
2022/12/17 18:06:29;;;;;;;;;;;20.70;51.20;;;;;;4459674;32;19970;-75
2022/12/17 18:08:55;;;;;;;;;;;20.70;51.10;;;;;;4459039;32;20450;-75
2022/12/17 18:11:22;;;;;;;;;;;20.70;51.00;;;;;;4459170;32;20293;-76
2022/12/17 18:13:54;;;;;;;;;;;20.70;51.00;;;;;;4457341;32;20100;-76
2022/12/17 18:16:30;;;;;;;;;;;20.70;50.90;;;;;;4456934;32;19978;-76
2022/12/17 18:18:57;;;;;;;;;;;20.70;50.90;;;;;;4457679;32;19985;-77
2022/12/17 18:21:23;;;;;;;;;;;20.70;50.90;;;;;;4457913;32;19974;-76
2022/12/17 18:23:54;;;;;;;;;;;20.70;50.80;;;;;;4458673;32;20406;-76
2022/12/17 18:26:20;;;;;;;;;;;20.70;50.90;;;;;;4458832;32;20045;-77
2022/12/17 18:28:47;;;;;;;;;;;20.70;50.90;;;;;;4457795;32;20049;-78
2022/12/17 18:31:14;;;;;;;;;;;20.70;50.90;;;;;;4457185;32;19974;-77
2022/12/17 18:33:41;;;;;;;;;;;20.70;51.00;;;;;;4459262;32;20558;-77
2022/12/17 18:36:17;;;;;;;;;;;20.70;51.00;;;;;;4458803;32;20033;-78
2022/12/17 18:38:43;;;;;;;;;;;20.70;51.00;;;;;;4458755;32;19992;-77
2022/12/17 18:43:56;;;;;;;;;;;20.80;51.10;;;;;;4458357;32;20056;-74
2022/12/17 18:46:21;;;;;;;;;;;20.80;51.20;;;;;;4458038;32;19989;-74
2022/12/17 18:48:50;;;;;;;;;;;20.80;51.20;;;;;;4458872;32;19990;-73
2022/12/17 18:51:16;;;;;;;;;;;20.80;51.20;;;;;;4458157;32;19982;-74
2022/12/17 18:53:41;;;;;;;;;;;20.80;51.20;;;;;;4458548;32;19981;-75
2022/12/17 18:56:08;;;;;;;;;;;20.80;51.30;;;;;;4458444;32;20061;-77
2022/12/17 18:58:34;;;;;;;;;;;20.70;51.30;;;;;;4459412;32;19982;-77
2022/12/17 19:01:00;;;;;;;;;;;20.70;51.40;;;;;;4456664;32;20383;-76
2022/12/17 19:03:27;;;;;;;;;;;20.70;51.50;;;;;;4458212;32;19986;-75
2022/12/17 19:05:54;;;;;;;;;;;20.70;51.50;;;;;;4446042;32;20319;-75
2022/12/17 19:08:19;;;;;;;;;;;20.70;51.60;;;;;;4460156;32;19967;-76
2022/12/17 19:10:45;;;;;;;;;;;20.70;51.60;;;;;;4457964;32;19978;-75
2022/12/17 19:13:10;;;;;;;;;;;20.70;51.70;;;;;;4456287;32;20446;-75
2022/12/17 19:15:36;;;;;;;;;;;20.60;51.60;;;;;;4458603;32;20032;-75
2022/12/17 19:18:02;;;;;;;;;;;20.60;51.70;;;;;;4457925;32;20048;-76
2022/12/17 19:20:27;;;;;;;;;;;20.60;51.70;;;;;;4459723;32;19963;-76
2022/12/17 19:22:53;;;;;;;;;;;20.70;51.80;;;;;;4447043;32;20159;-75
2022/12/17 19:25:19;;;;;;;;;;;20.70;51.70;;;;;;4458378;32;20316;-76
2022/12/17 19:27:45;;;;;;;;;;;20.70;51.80;;;;;;4459731;32;20363;-75
2022/12/17 19:30:11;;;;;;;;;;;20.70;51.80;;;;;;4460140;32;19978;-77
2022/12/17 19:32:36;;;;;;;;;;;20.70;51.80;;;;;;4461961;32;19974;-76
2022/12/17 19:35:02;;;;;;;;;;;20.70;51.80;;;;;;4460606;32;20428;-77
2022/12/17 19:37:28;;;;;;;;;;;20.70;51.90;;;;;;4461261;32;20474;-76
2022/12/17 19:39:53;;;;;;;;;;;20.70;51.90;;;;;;4461233;32;20384;-76
2022/12/17 19:42:26;;;;;;;;;;;20.60;51.90;;;;;;4458137;32;19992;-77
2022/12/17 19:44:52;;;;;;;;;;;20.60;51.90;;;;;;4460203;32;19982;-77
2022/12/17 19:47:18;;;;;;;;;;;20.60;52.00;;;;;;4461289;32;20074;-78
2022/12/17 19:49:47;;;;;;;;;;;20.60;52.00;;;;;;4459691;32;20552;-77
2022/12/17 19:52:12;;;;;;;;;;;20.60;52.00;;;;;;4460013;32;20095;-78
2022/12/17 19:54:38;;;;;;;;;;;20.60;52.10;;;;;;4459848;32;19975;-78
2022/12/17 19:57:04;;;;;;;;;;;20.60;52.10;;;;;;4462500;32;20479;-78
2022/12/17 19:59:29;;;;;;;;;;;20.60;52.10;;;;;;4457123;32;20152;-79
2022/12/17 20:01:55;;;;;;;;;;;20.60;52.10;;;;;;4461231;32;19977;-78
2022/12/17 20:04:25;;;;;;;;;;;20.60;52.20;;;;;;4459209;32;20399;-76
2022/12/17 20:06:56;;;;;;;;;;;20.60;52.20;;;;;;4447983;32;20168;-76
2022/12/17 20:09:21;;;;;;;;;;;20.60;52.20;;;;;;4449366;32;19986;-78
2022/12/17 20:11:47;;;;;;;;;;;20.60;52.30;;;;;;4448830;32;20084;-77
2022/12/17 20:14:13;;;;;;;;;;;20.60;52.30;;;;;;4448707;32;19974;-77
2022/12/17 20:16:46;;;;;;;;;;;20.60;52.40;;;;;;4448111;32;20371;-77
2022/12/17 20:19:13;;;;;;;;;;;20.60;52.40;;;;;;4454691;32;19982;-76
2022/12/17 20:21:40;;;;;;;;;;;20.50;52.40;;;;;;4458117;32;19974;-76
2022/12/17 20:24:06;;;;;;;;;;;20.50;53.40;;;;;;4460721;32;20136;-76
2022/12/17 20:26:32;;;;;;;;;;;20.50;52.50;;;;;;4461449;32;20033;-77
2022/12/17 20:28:58;;;;;;;;;;;20.50;52.50;;;;;;4458398;32;20100;-76
2022/12/17 20:31:24;;;;;;;;;;;20.50;52.50;;;;;;4460761;32;19978;-76
2022/12/17 20:33:50;;;;;;;;;;;20.50;52.40;;;;;;4459277;32;19978;-76
2022/12/17 20:36:16;;;;;;;;;;;20.60;52.40;;;;;;4461383;32;19977;-77
2022/12/17 20:38:42;;;;;;;;;;;20.50;52.40;;;;;;4461247;32;19978;-76
2022/12/17 20:41:09;;;;;;;;;;;20.60;52.40;;;;;;4460524;32;19990;-75
2022/12/17 20:43:35;;;;;;;;;;;20.60;52.30;;;;;;4461466;32;20103;-75
2022/12/17 20:46:01;;;;;;;;;;;20.60;52.30;;;;;;4460813;32;19982;-76
2022/12/17 20:48:27;;;;;;;;;;;20.60;52.20;;;;;;4460119;32;19990;-75
2022/12/17 20:50:53;;;;;;;;;;;20.60;52.20;;;;;;4459113;32;20040;-78
2022/12/17 20:53:19;;;;;;;;;;;20.60;52.20;;;;;;4460602;32;20136;-75
2022/12/17 20:55:45;;;;;;;;;;;20.60;52.20;;;;;;4460096;32;20159;-75
2022/12/17 20:58:12;;;;;;;;;;;20.60;52.30;;;;;;4460781;32;19978;-76
2022/12/17 21:00:39;;;;;;;;;;;20.50;52.30;;;;;;4459283;32;20304;-75
2022/12/17 21:03:05;;;;;;;;;;;20.50;52.40;;;;;;4459049;32;19978;-75
2022/12/17 21:05:36;;;;;;;;;;;20.40;52.60;;;;;;4459936;32;20061;-76
2022/12/17 21:08:02;;;;;;;;;;;20.40;52.70;;;;;;4459004;32;20156;-75
2022/12/17 21:10:28;;;;;;;;;;;20.30;52.80;;;;;;4460911;32;19978;-76
2022/12/17 21:15:38;;;;;;;;;;;20.20;53.20;;;;;;4461632;32;20124;-77
2022/12/17 21:18:04;;;;;;;;;;;20.10;53.30;;;;;;4460870;32;19967;-76
2022/12/17 21:20:34;;;;;;;;;;;20.00;53.50;;;;;;4445995;32;19986;-75
2022/12/17 21:23:00;;;;;;;;;;;20.00;53.90;;;;;;4460011;32;19970;-76
2022/12/17 21:25:25;;;;;;;;;;;19.90;54.30;;;;;;4460046;32;20335;-75
2022/12/17 21:27:51;;;;;;;;;;;19.80;54.50;;;;;;4458364;32;20310;-76
2022/12/17 21:30:17;;;;;;;;;;;19.70;54.90;;;;;;4457073;32;19990;-75
2022/12/17 21:32:42;;;;;;;;;;;19.70;55.50;;;;;;4458596;32;19984;-73
2022/12/17 21:35:08;;;;;;;;;;;19.70;56.00;;;;;;4459971;32;19977;-74
2022/12/17 21:37:34;;;;;;;;;;;19.60;56.00;;;;;;4459116;32;19982;-74
2022/12/17 21:40:00;;;;;;;;;;;19.60;56.20;;;;;;4452182;32;19982;-74
2022/12/17 21:45:11;;;;;;;;;;;19.50;56.20;;;;;;4459795;32;20495;-73
2022/12/17 21:47:40;;;;;;;;;;;19.40;56.20;;;;;;4457191;32;20013;-74
2022/12/17 21:50:06;;;;;;;;;;;19.40;56.20;;;;;;4458438;32;20052;-74
2022/12/17 21:52:31;;;;;;;;;;;19.30;56.20;;;;;;4457741;32;19971;-73
2022/12/17 21:54:57;;;;;;;;;;;19.30;56.20;;;;;;4456428;32;20376;-74
2022/12/17 21:57:23;;;;;;;;;;;19.20;56.20;;;;;;4456727;32;19970;-74
2022/12/17 21:59:49;;;;;;;;;;;19.20;56.20;;;;;;4452374;32;19970;-73
2022/12/17 22:02:14;;;;;;;;;;;19.20;56.20;;;;;;4456286;32;20305;-72
2022/12/17 22:04:40;;;;;;;;;;;19.10;56.10;;;;;;4453880;32;19982;-73
2022/12/17 22:07:07;;;;;;;;;;;19.10;56.30;;;;;;4454791;32;19970;-73
2022/12/17 22:09:38;;;;;;;;;;;19.10;56.30;;;;;;4457606;32;19986;-75
2022/12/17 22:14:48;;;;;;;;;;;19.00;56.40;;;;;;4456184;32;19988;-74
2022/12/17 22:17:14;;;;;;;;;;;18.90;56.40;;;;;;4444891;32;19978;-73
2022/12/17 22:19:40;;;;;;;;;;;18.80;56.30;;;;;;4458359;32;20296;-74
2022/12/17 22:22:06;;;;;;;;;;;18.80;56.40;;;;;;4458302;32;20446;-73
2022/12/17 22:24:32;;;;;;;;;;;18.70;56.40;;;;;;4458512;32;19978;-73
2022/12/17 22:26:59;;;;;;;;;;;18.70;56.50;;;;;;4457994;32;20515;-73
2022/12/17 22:34:57;;;;;;;;;;;18.60;56.60;;;;;;4458589;32;20055;-74
2022/12/17 22:37:23;;;;;;;;;;;18.50;56.50;;;;;;4457837;32;19990;-75
2022/12/17 22:39:50;;;;;;;;;;;18.50;56.60;;;;;;4458005;32;20000;-74
2022/12/17 22:45:02;;;;;;;;;;;18.50;56.60;;;;;;4457969;32;20100;-73
2022/12/17 22:47:28;;;;;;;;;;;18.40;56.50;;;;;;4457890;32;20183;-74
2022/12/17 22:49:54;;;;;;;;;;;18.40;56.50;;;;;;4432632;32;20195;-74
2022/12/17 22:52:20;;;;;;;;;;;18.40;56.60;;;;;;4459439;32;20418;-74
2022/12/17 22:54:46;;;;;;;;;;;18.40;56.60;;;;;;4455334;32;20080;-74
2022/12/17 22:57:12;;;;;;;;;;;18.30;56.50;;;;;;4458493;32;19982;-73
2022/12/17 22:59:37;;;;;;;;;;;18.30;56.50;;;;;;4461157;32;20052;-73
2022/12/17 23:02:03;;;;;;;;;;;18.20;56.40;;;;;;4462541;32;19997;-74
2022/12/17 23:04:29;;;;;;;;;;;18.20;56.40;;;;;;4461941;32;19974;-73
2022/12/17 23:06:55;;;;;;;;;;;18.20;56.40;;;;;;4462178;32;20513;-74
2022/12/17 23:09:22;;;;;;;;;;;18.20;56.40;;;;;;4462360;32;19990;-73
2022/12/17 23:11:48;;;;;;;;;;;18.20;56.40;;;;;;4458691;32;19986;-73
2022/12/17 23:14:14;;;;;;;;;;;18.10;56.40;;;;;;4460682;32;19962;-74
2022/12/17 23:16:40;;;;;;;;;;;18.10;56.40;;;;;;4459929;32;19978;-73
2022/12/17 23:19:06;;;;;;;;;;;18.10;56.40;;;;;;4461948;32;20475;-73
2022/12/17 23:21:32;;;;;;;;;;;18.10;56.40;;;;;;4461639;32;19985;-72
2022/12/17 23:23:58;;;;;;;;;;;18.10;56.40;;;;;;4462571;32;20124;-73
2022/12/17 23:26:25;;;;;;;;;;;18.00;56.40;;;;;;4461344;32;19966;-73
2022/12/17 23:28:56;;;;;;;;;;;18.00;56.40;;;;;;4460322;32;19986;-73
2022/12/17 23:31:22;;;;;;;;;;;18.00;56.40;;;;;;4458913;32;20005;-73
2022/12/17 23:33:48;;;;;;;;;;;18.00;56.40;;;;;;4459823;32;19986;-73
2022/12/17 23:36:17;;;;;;;;;;;17.90;56.40;;;;;;4448001;32;20199;-73
2022/12/17 23:38:43;;;;;;;;;;;17.90;56.40;;;;;;4461215;32;20010;-73
2022/12/17 23:41:11;;;;;;;;;;;17.90;56.40;;;;;;4449170;32;19997;-73
2022/12/17 23:43:39;;;;;;;;;;;17.90;56.40;;;;;;4448876;32;19975;-73
2022/12/17 23:46:05;;;;;;;;;;;17.80;56.30;;;;;;4450442;32;19977;-73
2022/12/17 23:48:33;;;;;;;;;;;17.80;56.30;;;;;;4448995;32;19975;-73
2022/12/17 23:50:58;;;;;;;;;;;17.80;56.30;;;;;;4450353;32;20384;-73
2022/12/17 23:53:28;;;;;;;;;;;17.80;56.30;;;;;;4449021;32;20057;-73
2022/12/17 23:55:54;;;;;;;;;;;17.80;56.30;;;;;;4450328;32;19989;-74
2022/12/17 23:58:20;;;;;;;;;;;17.80;56.30;;;;;;4448979;32;19975;-73
